sensor_id;sensor_type;location;lat;lon;timestamp;P1;durP1;ratioP1;P2;durP2;ratioP2
31872;SDS011;22407;42.820;23.374;2023-02-01T00:02:05;9.90;;;4.60;;
31872;SDS011;22407;42.820;23.374;2023-02-01T00:04:30;12.33;;;4.37;;
31872;SDS011;22407;42.820;23.374;2023-02-01T00:06:55;10.03;;;4.50;;
31872;SDS011;22407;42.820;23.374;2023-02-01T00:09:21;8.70;;;4.47;;
31872;SDS011;22407;42.820;23.374;2023-02-01T00:11:46;10.17;;;4.37;;
31872;SDS011;22407;42.820;23.374;2023-02-01T00:14:11;8.82;;;4.20;;
31872;SDS011;22407;42.820;23.374;2023-02-01T00:16:37;9.77;;;4.33;;
31872;SDS011;22407;42.820;23.374;2023-02-01T00:19:12;10.63;;;4.50;;
31872;SDS011;22407;42.820;23.374;2023-02-01T00:21:37;9.53;;;4.07;;
31872;SDS011;22407;42.820;23.374;2023-02-01T00:24:03;10.57;;;4.10;;
31872;SDS011;22407;42.820;23.374;2023-02-01T00:26:32;11.10;;;5.23;;
31872;SDS011;22407;42.820;23.374;2023-02-01T00:28:58;12.38;;;5.93;;
31872;SDS011;22407;42.820;23.374;2023-02-01T00:31:23;11.77;;;5.13;;
31872;SDS011;22407;42.820;23.374;2023-02-01T00:33:48;12.43;;;5.23;;
31872;SDS011;22407;42.820;23.374;2023-02-01T00:36:14;11.73;;;4.50;;
31872;SDS011;22407;42.820;23.374;2023-02-01T00:38:39;10.10;;;4.43;;
31872;SDS011;22407;42.820;23.374;2023-02-01T00:41:12;9.53;;;3.83;;
31872;SDS011;22407;42.820;23.374;2023-02-01T00:43:37;8.03;;;3.63;;
31872;SDS011;22407;42.820;23.374;2023-02-01T00:46:03;8.60;;;4.53;;
31872;SDS011;22407;42.820;23.374;2023-02-01T00:48:28;10.83;;;5.33;;
31872;SDS011;22407;42.820;23.374;2023-02-01T00:50:54;10.60;;;4.37;;
31872;SDS011;22407;42.820;23.374;2023-02-01T00:53:19;6.93;;;3.40;;
31872;SDS011;22407;42.820;23.374;2023-02-01T00:55:45;7.40;;;3.57;;
31872;SDS011;22407;42.820;23.374;2023-02-01T00:58:10;9.45;;;4.00;;
31872;SDS011;22407;42.820;23.374;2023-02-01T01:00:36;11.10;;;3.83;;
31872;SDS011;22407;42.820;23.374;2023-02-01T01:03:01;8.90;;;3.63;;
31872;SDS011;22407;42.820;23.374;2023-02-01T01:05:26;11.53;;;3.90;;
31872;SDS011;22407;42.820;23.374;2023-02-01T01:07:52;11.10;;;3.83;;
31872;SDS011;22407;42.820;23.374;2023-02-01T01:10:18;8.37;;;4.00;;
31872;SDS011;22407;42.820;23.374;2023-02-01T01:12:43;9.17;;;3.93;;
31872;SDS011;22407;42.820;23.374;2023-02-01T01:15:08;12.00;;;4.83;;
31872;SDS011;22407;42.820;23.374;2023-02-01T01:17:34;8.40;;;3.90;;
31872;SDS011;22407;42.820;23.374;2023-02-01T01:19:59;8.87;;;4.17;;
31872;SDS011;22407;42.820;23.374;2023-02-01T01:22:24;7.30;;;3.40;;
31872;SDS011;22407;42.820;23.374;2023-02-01T01:24:49;8.83;;;4.10;;
31872;SDS011;22407;42.820;23.374;2023-02-01T01:27:15;10.00;;;4.40;;
31872;SDS011;22407;42.820;23.374;2023-02-01T01:29:40;12.40;;;4.60;;
31872;SDS011;22407;42.820;23.374;2023-02-01T01:32:05;13.47;;;5.00;;
31872;SDS011;22407;42.820;23.374;2023-02-01T01:34:30;10.97;;;4.27;;
31872;SDS011;22407;42.820;23.374;2023-02-01T01:36:56;10.80;;;4.57;;
31872;SDS011;22407;42.820;23.374;2023-02-01T01:39:21;12.50;;;4.57;;
31872;SDS011;22407;42.820;23.374;2023-02-01T01:41:46;13.50;;;4.40;;
31872;SDS011;22407;42.820;23.374;2023-02-01T01:46:55;12.57;;;4.50;;
31872;SDS011;22407;42.820;23.374;2023-02-01T01:49:21;10.17;;;4.60;;
31872;SDS011;22407;42.820;23.374;2023-02-01T01:51:55;12.80;;;5.38;;
31872;SDS011;22407;42.820;23.374;2023-02-01T01:54:24;12.38;;;5.90;;
31872;SDS011;22407;42.820;23.374;2023-02-01T01:56:51;11.95;;;5.47;;
31872;SDS011;22407;42.820;23.374;2023-02-01T01:59:17;11.95;;;5.28;;
31872;SDS011;22407;42.820;23.374;2023-02-01T02:01:42;11.70;;;5.53;;
31872;SDS011;22407;42.820;23.374;2023-02-01T02:04:08;11.37;;;5.17;;
31872;SDS011;22407;42.820;23.374;2023-02-01T02:06:54;10.17;;;5.50;;
31872;SDS011;22407;42.820;23.374;2023-02-01T02:09:21;11.20;;;4.88;;
31872;SDS011;22407;42.820;23.374;2023-02-01T02:11:46;11.10;;;4.43;;
31872;SDS011;22407;42.820;23.374;2023-02-01T02:14:12;10.00;;;4.80;;
31872;SDS011;22407;42.820;23.374;2023-02-01T02:16:48;10.90;;;5.07;;
31872;SDS011;22407;42.820;23.374;2023-02-01T02:21:57;13.73;;;5.90;;
31872;SDS011;22407;42.820;23.374;2023-02-01T02:27:05;14.13;;;6.25;;
31872;SDS011;22407;42.820;23.374;2023-02-01T02:35:17;17.05;;;6.68;;
31872;SDS011;22407;42.820;23.374;2023-02-01T02:40:44;12.50;;;5.70;;
31872;SDS011;22407;42.820;23.374;2023-02-01T02:43:13;13.45;;;6.43;;
31872;SDS011;22407;42.820;23.374;2023-02-01T02:49:40;13.95;;;5.25;;
31872;SDS011;22407;42.820;23.374;2023-02-01T02:52:10;13.40;;;6.53;;
31872;SDS011;22407;42.820;23.374;2023-02-01T02:54:55;15.77;;;6.10;;
31872;SDS011;22407;42.820;23.374;2023-02-01T02:57:37;17.73;;;7.72;;
31872;SDS011;22407;42.820;23.374;2023-02-01T03:00:24;24.40;;;8.37;;
31872;SDS011;22407;42.820;23.374;2023-02-01T03:03:08;20.60;;;6.78;;
31872;SDS011;22407;42.820;23.374;2023-02-01T03:05:52;19.42;;;8.48;;
31872;SDS011;22407;42.820;23.374;2023-02-01T03:08:18;16.20;;;6.40;;
31872;SDS011;22407;42.820;23.374;2023-02-01T03:13:15;8.77;;;3.93;;
31872;SDS011;22407;42.820;23.374;2023-02-01T03:15:43;10.07;;;4.72;;
31872;SDS011;22407;42.820;23.374;2023-02-01T03:18:15;11.07;;;4.63;;
31872;SDS011;22407;42.820;23.374;2023-02-01T03:20:43;14.30;;;5.03;;
31872;SDS011;22407;42.820;23.374;2023-02-01T03:23:09;12.05;;;4.05;;
31872;SDS011;22407;42.820;23.374;2023-02-01T03:25:35;12.95;;;5.35;;
31872;SDS011;22407;42.820;23.374;2023-02-01T03:28:02;10.60;;;4.47;;
31872;SDS011;22407;42.820;23.374;2023-02-01T03:30:34;13.63;;;4.68;;
31872;SDS011;22407;42.820;23.374;2023-02-01T03:33:02;11.63;;;4.82;;
31872;SDS011;22407;42.820;23.374;2023-02-01T03:35:29;15.43;;;4.97;;
31872;SDS011;22407;42.820;23.374;2023-02-01T03:37:56;10.13;;;4.73;;
31872;SDS011;22407;42.820;23.374;2023-02-01T03:40:26;10.73;;;4.53;;
31872;SDS011;22407;42.820;23.374;2023-02-01T03:42:54;9.70;;;4.30;;
31872;SDS011;22407;42.820;23.374;2023-02-01T03:47:46;12.87;;;5.00;;
31872;SDS011;22407;42.820;23.374;2023-02-01T03:50:14;9.02;;;4.43;;
31872;SDS011;22407;42.820;23.374;2023-02-01T03:53:01;19.33;;;6.75;;
31872;SDS011;22407;42.820;23.374;2023-02-01T03:55:27;12.07;;;5.63;;
31872;SDS011;22407;42.820;23.374;2023-02-01T04:00:22;10.25;;;4.65;;
31872;SDS011;22407;42.820;23.374;2023-02-01T04:02:48;14.77;;;5.30;;
31872;SDS011;22407;42.820;23.374;2023-02-01T04:05:13;12.23;;;5.20;;
31872;SDS011;22407;42.820;23.374;2023-02-01T04:07:38;12.70;;;5.50;;
31872;SDS011;22407;42.820;23.374;2023-02-01T04:10:04;11.13;;;5.20;;
31872;SDS011;22407;42.820;23.374;2023-02-01T04:12:29;10.88;;;4.97;;
31872;SDS011;22407;42.820;23.374;2023-02-01T04:14:55;11.33;;;5.10;;
31872;SDS011;22407;42.820;23.374;2023-02-01T04:17:20;11.60;;;5.90;;
31872;SDS011;22407;42.820;23.374;2023-02-01T04:19:45;11.83;;;4.77;;
31872;SDS011;22407;42.820;23.374;2023-02-01T04:22:10;16.13;;;4.87;;
31872;SDS011;22407;42.820;23.374;2023-02-01T04:24:37;9.15;;;4.63;;
31872;SDS011;22407;42.820;23.374;2023-02-01T04:27:02;9.97;;;3.80;;
31872;SDS011;22407;42.820;23.374;2023-02-01T04:29:27;10.03;;;4.20;;
31872;SDS011;22407;42.820;23.374;2023-02-01T04:31:53;8.97;;;4.63;;
31872;SDS011;22407;42.820;23.374;2023-02-01T04:34:18;11.47;;;4.43;;
31872;SDS011;22407;42.820;23.374;2023-02-01T04:36:43;10.80;;;4.90;;
31872;SDS011;22407;42.820;23.374;2023-02-01T04:39:09;10.75;;;4.63;;
31872;SDS011;22407;42.820;23.374;2023-02-01T04:41:34;11.93;;;5.03;;
31872;SDS011;22407;42.820;23.374;2023-02-01T04:44:00;15.33;;;6.87;;
31872;SDS011;22407;42.820;23.374;2023-02-01T04:46:25;21.50;;;9.50;;
31872;SDS011;22407;42.820;23.374;2023-02-01T04:48:50;15.90;;;6.85;;
31872;SDS011;22407;42.820;23.374;2023-02-01T04:51:15;14.63;;;7.13;;
31872;SDS011;22407;42.820;23.374;2023-02-01T04:53:43;11.20;;;5.50;;
31872;SDS011;22407;42.820;23.374;2023-02-01T04:56:08;12.07;;;5.18;;
31872;SDS011;22407;42.820;23.374;2023-02-01T04:58:33;12.47;;;5.00;;
31872;SDS011;22407;42.820;23.374;2023-02-01T05:00:58;12.27;;;5.17;;
31872;SDS011;22407;42.820;23.374;2023-02-01T05:03:24;13.37;;;4.93;;
31872;SDS011;22407;42.820;23.374;2023-02-01T05:05:49;12.93;;;5.27;;
31872;SDS011;22407;42.820;23.374;2023-02-01T05:08:15;11.93;;;4.83;;
31872;SDS011;22407;42.820;23.374;2023-02-01T05:10:40;11.93;;;4.77;;
31872;SDS011;22407;42.820;23.374;2023-02-01T05:13:05;13.98;;;5.90;;
31872;SDS011;22407;42.820;23.374;2023-02-01T05:15:50;13.77;;;6.83;;
31872;SDS011;22407;42.820;23.374;2023-02-01T05:18:15;14.77;;;6.07;;
31872;SDS011;22407;42.820;23.374;2023-02-01T05:20:41;14.53;;;6.60;;
31872;SDS011;22407;42.820;23.374;2023-02-01T05:23:06;14.13;;;6.70;;
31872;SDS011;22407;42.820;23.374;2023-02-01T05:25:31;11.53;;;5.47;;
31872;SDS011;22407;42.820;23.374;2023-02-01T05:27:56;14.83;;;6.43;;
31872;SDS011;22407;42.820;23.374;2023-02-01T05:30:22;13.90;;;6.07;;
31872;SDS011;22407;42.820;23.374;2023-02-01T05:32:51;13.93;;;5.97;;
31872;SDS011;22407;42.820;23.374;2023-02-01T05:35:16;16.47;;;6.57;;
31872;SDS011;22407;42.820;23.374;2023-02-01T05:37:41;19.17;;;6.97;;
31872;SDS011;22407;42.820;23.374;2023-02-01T05:40:07;19.73;;;7.20;;
31872;SDS011;22407;42.820;23.374;2023-02-01T05:42:32;15.00;;;6.07;;
31872;SDS011;22407;42.820;23.374;2023-02-01T05:44:57;16.97;;;6.77;;
31872;SDS011;22407;42.820;23.374;2023-02-01T05:47:23;16.03;;;7.03;;
31872;SDS011;22407;42.820;23.374;2023-02-01T05:49:48;24.43;;;7.20;;
31872;SDS011;22407;42.820;23.374;2023-02-01T05:52:13;14.90;;;6.43;;
31872;SDS011;22407;42.820;23.374;2023-02-01T05:54:44;15.73;;;5.55;;
31872;SDS011;22407;42.820;23.374;2023-02-01T05:57:09;12.83;;;6.37;;
31872;SDS011;22407;42.820;23.374;2023-02-01T05:59:34;16.10;;;6.63;;
31872;SDS011;22407;42.820;23.374;2023-02-01T06:02:02;20.95;;;6.40;;
31872;SDS011;22407;42.820;23.374;2023-02-01T06:04:27;29.23;;;7.43;;
31872;SDS011;22407;42.820;23.374;2023-02-01T06:06:52;14.87;;;6.80;;
31872;SDS011;22407;42.820;23.374;2023-02-01T06:09:18;14.87;;;6.77;;
31872;SDS011;22407;42.820;23.374;2023-02-01T06:11:43;12.27;;;6.37;;
31872;SDS011;22407;42.820;23.374;2023-02-01T06:14:08;11.77;;;5.80;;
31872;SDS011;22407;42.820;23.374;2023-02-01T06:16:33;18.53;;;7.83;;
31872;SDS011;22407;42.820;23.374;2023-02-01T06:18:59;14.48;;;5.53;;
31872;SDS011;22407;42.820;23.374;2023-02-01T06:21:24;13.83;;;4.87;;
31872;SDS011;22407;42.820;23.374;2023-02-01T06:23:50;12.37;;;4.70;;
31872;SDS011;22407;42.820;23.374;2023-02-01T06:26:15;13.17;;;5.87;;
31872;SDS011;22407;42.820;23.374;2023-02-01T06:28:43;16.73;;;6.20;;
31872;SDS011;22407;42.820;23.374;2023-02-01T06:31:08;11.65;;;5.72;;
31872;SDS011;22407;42.820;23.374;2023-02-01T06:33:33;12.33;;;5.10;;
31872;SDS011;22407;42.820;23.374;2023-02-01T06:35:59;15.70;;;6.07;;
31872;SDS011;22407;42.820;23.374;2023-02-01T06:38:25;21.73;;;7.95;;
31872;SDS011;22407;42.820;23.374;2023-02-01T06:40:54;15.83;;;6.47;;
31872;SDS011;22407;42.820;23.374;2023-02-01T06:43:20;12.27;;;5.68;;
31872;SDS011;22407;42.820;23.374;2023-02-01T06:45:45;18.05;;;6.82;;
31872;SDS011;22407;42.820;23.374;2023-02-01T06:48:11;15.27;;;6.17;;
31872;SDS011;22407;42.820;23.374;2023-02-01T06:50:36;18.57;;;6.20;;
31872;SDS011;22407;42.820;23.374;2023-02-01T06:53:01;20.27;;;7.30;;
31872;SDS011;22407;42.820;23.374;2023-02-01T06:55:26;18.63;;;7.57;;
31872;SDS011;22407;42.820;23.374;2023-02-01T06:57:53;18.87;;;8.23;;
31872;SDS011;22407;42.820;23.374;2023-02-01T07:00:18;16.67;;;7.45;;
31872;SDS011;22407;42.820;23.374;2023-02-01T07:02:43;14.90;;;7.37;;
31872;SDS011;22407;42.820;23.374;2023-02-01T07:05:09;17.07;;;7.30;;
31872;SDS011;22407;42.820;23.374;2023-02-01T07:07:34;13.47;;;5.90;;
31872;SDS011;22407;42.820;23.374;2023-02-01T07:09:59;19.97;;;8.03;;
31872;SDS011;22407;42.820;23.374;2023-02-01T07:12:24;15.03;;;6.07;;
31872;SDS011;22407;42.820;23.374;2023-02-01T07:14:50;16.07;;;6.33;;
31872;SDS011;22407;42.820;23.374;2023-02-01T07:17:15;18.37;;;6.43;;
31872;SDS011;22407;42.820;23.374;2023-02-01T07:19:40;16.97;;;7.10;;
31872;SDS011;22407;42.820;23.374;2023-02-01T07:22:06;16.13;;;5.87;;
31872;SDS011;22407;42.820;23.374;2023-02-01T07:24:31;14.87;;;7.37;;
31872;SDS011;22407;42.820;23.374;2023-02-01T07:26:56;12.10;;;5.17;;
31872;SDS011;22407;42.820;23.374;2023-02-01T07:29:21;11.70;;;6.37;;
31872;SDS011;22407;42.820;23.374;2023-02-01T07:31:47;13.18;;;5.40;;
31872;SDS011;22407;42.820;23.374;2023-02-01T07:34:12;12.70;;;6.07;;
31872;SDS011;22407;42.820;23.374;2023-02-01T07:36:37;21.30;;;7.50;;
31872;SDS011;22407;42.820;23.374;2023-02-01T07:39:03;18.80;;;6.70;;
31872;SDS011;22407;42.820;23.374;2023-02-01T07:41:29;15.55;;;6.43;;
31872;SDS011;22407;42.820;23.374;2023-02-01T07:43:54;18.30;;;8.40;;
31872;SDS011;22407;42.820;23.374;2023-02-01T07:46:20;13.30;;;5.03;;
31872;SDS011;22407;42.820;23.374;2023-02-01T07:48:45;12.50;;;5.40;;
31872;SDS011;22407;42.820;23.374;2023-02-01T07:51:11;15.50;;;6.07;;
31872;SDS011;22407;42.820;23.374;2023-02-01T07:53:37;15.75;;;6.30;;
31872;SDS011;22407;42.820;23.374;2023-02-01T07:56:08;16.87;;;6.87;;
31872;SDS011;22407;42.820;23.374;2023-02-01T07:58:34;14.18;;;5.80;;
31872;SDS011;22407;42.820;23.374;2023-02-01T08:00:59;14.67;;;5.43;;
31872;SDS011;22407;42.820;23.374;2023-02-01T08:03:43;13.20;;;4.93;;
31872;SDS011;22407;42.820;23.374;2023-02-01T08:06:08;15.13;;;6.00;;
31872;SDS011;22407;42.820;23.374;2023-02-01T08:08:34;11.13;;;5.50;;
31872;SDS011;22407;42.820;23.374;2023-02-01T08:11:00;8.20;;;3.80;;
31872;SDS011;22407;42.820;23.374;2023-02-01T08:13:25;10.50;;;4.10;;
31872;SDS011;22407;42.820;23.374;2023-02-01T08:15:51;12.18;;;4.47;;
31872;SDS011;22407;42.820;23.374;2023-02-01T08:18:16;12.90;;;5.13;;
31872;SDS011;22407;42.820;23.374;2023-02-01T08:20:43;9.73;;;4.65;;
31872;SDS011;22407;42.820;23.374;2023-02-01T08:23:10;14.43;;;5.17;;
31872;SDS011;22407;42.820;23.374;2023-02-01T08:25:35;11.20;;;4.97;;
31872;SDS011;22407;42.820;23.374;2023-02-01T08:28:01;11.70;;;4.57;;
31872;SDS011;22407;42.820;23.374;2023-02-01T08:30:26;14.43;;;4.63;;
31872;SDS011;22407;42.820;23.374;2023-02-01T08:32:52;12.48;;;4.93;;
31872;SDS011;22407;42.820;23.374;2023-02-01T08:35:17;10.87;;;4.67;;
31872;SDS011;22407;42.820;23.374;2023-02-01T08:37:43;11.97;;;4.57;;
31872;SDS011;22407;42.820;23.374;2023-02-01T08:40:08;17.07;;;5.20;;
31872;SDS011;22407;42.820;23.374;2023-02-01T08:42:34;16.60;;;6.10;;
31872;SDS011;22407;42.820;23.374;2023-02-01T08:45:21;14.27;;;5.15;;
31872;SDS011;22407;42.820;23.374;2023-02-01T08:47:47;16.05;;;5.40;;
31872;SDS011;22407;42.820;23.374;2023-02-01T08:50:12;9.80;;;3.83;;
31872;SDS011;22407;42.820;23.374;2023-02-01T08:52:38;12.05;;;5.38;;
31872;SDS011;22407;42.820;23.374;2023-02-01T08:55:04;14.70;;;5.80;;
31872;SDS011;22407;42.820;23.374;2023-02-01T08:57:29;14.32;;;5.78;;
31872;SDS011;22407;42.820;23.374;2023-02-01T08:59:55;17.07;;;6.43;;
31872;SDS011;22407;42.820;23.374;2023-02-01T09:02:21;12.00;;;4.73;;
31872;SDS011;22407;42.820;23.374;2023-02-01T09:04:46;14.17;;;5.80;;
31872;SDS011;22407;42.820;23.374;2023-02-01T09:07:11;10.90;;;5.30;;
31872;SDS011;22407;42.820;23.374;2023-02-01T09:09:38;12.80;;;5.20;;
31872;SDS011;22407;42.820;23.374;2023-02-01T09:12:03;11.65;;;4.50;;
31872;SDS011;22407;42.820;23.374;2023-02-01T09:14:29;12.40;;;4.87;;
31872;SDS011;22407;42.820;23.374;2023-02-01T09:16:54;15.07;;;6.17;;
31872;SDS011;22407;42.820;23.374;2023-02-01T09:19:19;13.57;;;5.80;;
31872;SDS011;22407;42.820;23.374;2023-02-01T09:21:44;11.50;;;4.87;;
31872;SDS011;22407;42.820;23.374;2023-02-01T09:24:10;10.97;;;3.93;;
31872;SDS011;22407;42.820;23.374;2023-02-01T09:26:35;14.33;;;5.23;;
31872;SDS011;22407;42.820;23.374;2023-02-01T09:29:01;11.87;;;4.07;;
31872;SDS011;22407;42.820;23.374;2023-02-01T09:31:26;7.67;;;3.10;;
31872;SDS011;22407;42.820;23.374;2023-02-01T09:33:51;7.33;;;3.07;;
31872;SDS011;22407;42.820;23.374;2023-02-01T09:36:17;7.37;;;3.20;;
31872;SDS011;22407;42.820;23.374;2023-02-01T09:38:44;10.50;;;3.83;;
31872;SDS011;22407;42.820;23.374;2023-02-01T09:41:55;7.40;;;3.30;;
31872;SDS011;22407;42.820;23.374;2023-02-01T09:44:05;15.30;;;6.93;;
31872;SDS011;22407;42.820;23.374;2023-02-01T09:46:32;21.45;;;7.32;;
31872;SDS011;22407;42.820;23.374;2023-02-01T09:48:59;14.45;;;3.95;;
31872;SDS011;22407;42.820;23.374;2023-02-01T09:51:39;7.53;;;3.33;;
31872;SDS011;22407;42.820;23.374;2023-02-01T09:57:02;18.17;;;6.83;;
31872;SDS011;22407;42.820;23.374;2023-02-01T10:01:50;11.93;;;5.03;;
31872;SDS011;22407;42.820;23.374;2023-02-01T10:04:15;7.30;;;3.03;;
31872;SDS011;22407;42.820;23.374;2023-02-01T10:09:14;10.88;;;4.30;;
31872;SDS011;22407;42.820;23.374;2023-02-01T10:11:46;8.05;;;3.33;;
31872;SDS011;22407;42.820;23.374;2023-02-01T10:16:49;14.10;;;5.57;;
31872;SDS011;22407;42.820;23.374;2023-02-01T10:19:24;7.78;;;3.45;;
31872;SDS011;22407;42.820;23.374;2023-02-01T10:21:57;7.05;;;2.97;;
31872;SDS011;22407;42.820;23.374;2023-02-01T10:27:02;8.80;;;4.43;;
31872;SDS011;22407;42.820;23.374;2023-02-01T10:29:42;7.40;;;3.30;;
31872;SDS011;22407;42.820;23.374;2023-02-01T10:32:09;9.73;;;3.97;;
31872;SDS011;22407;42.820;23.374;2023-02-01T10:34:37;7.55;;;3.15;;
31872;SDS011;22407;42.820;23.374;2023-02-01T10:39:37;9.75;;;3.78;;
31872;SDS011;22407;42.820;23.374;2023-02-01T10:42:02;24.30;;;5.67;;
31872;SDS011;22407;42.820;23.374;2023-02-01T10:44:28;11.03;;;3.70;;
31872;SDS011;22407;42.820;23.374;2023-02-01T10:46:55;7.38;;;2.97;;
31872;SDS011;22407;42.820;23.374;2023-02-01T10:49:29;6.67;;;3.00;;
31872;SDS011;22407;42.820;23.374;2023-02-01T10:51:58;7.93;;;3.47;;
31872;SDS011;22407;42.820;23.374;2023-02-01T10:54:34;8.25;;;4.32;;
31872;SDS011;22407;42.820;23.374;2023-02-01T10:57:00;9.30;;;4.07;;
31872;SDS011;22407;42.820;23.374;2023-02-01T10:59:27;10.63;;;4.03;;
31872;SDS011;22407;42.820;23.374;2023-02-01T11:01:58;8.90;;;3.58;;
31872;SDS011;22407;42.820;23.374;2023-02-01T11:04:24;7.87;;;3.03;;
31872;SDS011;22407;42.820;23.374;2023-02-01T11:06:52;11.27;;;3.90;;
31872;SDS011;22407;42.820;23.374;2023-02-01T11:09:19;11.05;;;4.13;;
31872;SDS011;22407;42.820;23.374;2023-02-01T11:14:15;7.73;;;3.30;;
31872;SDS011;22407;42.820;23.374;2023-02-01T11:16:41;8.15;;;3.30;;
31872;SDS011;22407;42.820;23.374;2023-02-01T11:19:11;11.60;;;3.07;;
31872;SDS011;22407;42.820;23.374;2023-02-01T11:21:39;7.90;;;2.97;;
31872;SDS011;22407;42.820;23.374;2023-02-01T11:24:22;7.63;;;3.15;;
31872;SDS011;22407;42.820;23.374;2023-02-01T11:26:48;6.50;;;2.78;;
31872;SDS011;22407;42.820;23.374;2023-02-01T11:29:14;6.50;;;3.60;;
31872;SDS011;22407;42.820;23.374;2023-02-01T11:31:42;7.07;;;3.30;;
31872;SDS011;22407;42.820;23.374;2023-02-01T11:34:14;7.25;;;3.58;;
31872;SDS011;22407;42.820;23.374;2023-02-01T11:36:40;7.00;;;3.35;;
31872;SDS011;22407;42.820;23.374;2023-02-01T11:39:10;7.20;;;3.43;;
31872;SDS011;22407;42.820;23.374;2023-02-01T11:41:44;7.63;;;3.05;;
31872;SDS011;22407;42.820;23.374;2023-02-01T11:44:26;8.40;;;2.70;;
31872;SDS011;22407;42.820;23.374;2023-02-01T11:46:53;6.90;;;3.10;;
31872;SDS011;22407;42.820;23.374;2023-02-01T11:49:20;10.60;;;2.83;;
31872;SDS011;22407;42.820;23.374;2023-02-01T11:51:54;9.07;;;3.78;;
31872;SDS011;22407;42.820;23.374;2023-02-01T11:54:34;7.60;;;3.67;;
31872;SDS011;22407;42.820;23.374;2023-02-01T11:57:15;7.43;;;3.72;;
31872;SDS011;22407;42.820;23.374;2023-02-01T12:05:24;9.10;;;3.20;;
31872;SDS011;22407;42.820;23.374;2023-02-01T12:10:28;8.77;;;4.25;;
31872;SDS011;22407;42.820;23.374;2023-02-01T12:21:17;11.07;;;3.63;;
31872;SDS011;22407;42.820;23.374;2023-02-01T12:37:17;6.53;;;3.20;;
31872;SDS011;22407;42.820;23.374;2023-02-01T12:39:46;6.10;;;2.60;;
31872;SDS011;22407;42.820;23.374;2023-02-01T12:42:19;6.88;;;2.30;;
31872;SDS011;22407;42.820;23.374;2023-02-01T12:47:31;6.70;;;2.97;;
31872;SDS011;22407;42.820;23.374;2023-02-01T12:52:30;9.63;;;3.40;;
31872;SDS011;22407;42.820;23.374;2023-02-01T12:55:05;7.93;;;2.97;;
31872;SDS011;22407;42.820;23.374;2023-02-01T12:57:36;8.25;;;3.50;;
31872;SDS011;22407;42.820;23.374;2023-02-01T13:00:23;9.98;;;3.90;;
31872;SDS011;22407;42.820;23.374;2023-02-01T13:08:07;7.00;;;2.60;;
31872;SDS011;22407;42.820;23.374;2023-02-01T13:10:38;6.32;;;2.72;;
31872;SDS011;22407;42.820;23.374;2023-02-01T13:15:33;5.33;;;2.57;;
31872;SDS011;22407;42.820;23.374;2023-02-01T13:18:02;7.45;;;3.30;;
31872;SDS011;22407;42.820;23.374;2023-02-01T13:20:30;6.67;;;2.90;;
31872;SDS011;22407;42.820;23.374;2023-02-01T13:23:02;7.65;;;3.30;;
31872;SDS011;22407;42.820;23.374;2023-02-01T13:25:34;8.15;;;2.85;;
31872;SDS011;22407;42.820;23.374;2023-02-01T13:28:02;8.57;;;3.55;;
31872;SDS011;22407;42.820;23.374;2023-02-01T13:30:32;7.40;;;2.72;;
31872;SDS011;22407;42.820;23.374;2023-02-01T13:33:11;7.07;;;3.10;;
31872;SDS011;22407;42.820;23.374;2023-02-01T13:40:46;7.70;;;3.60;;
31872;SDS011;22407;42.820;23.374;2023-02-01T13:43:15;7.05;;;2.75;;
31872;SDS011;22407;42.820;23.374;2023-02-01T13:45:53;6.97;;;2.78;;
31872;SDS011;22407;42.820;23.374;2023-02-01T13:48:24;5.97;;;2.87;;
31872;SDS011;22407;42.820;23.374;2023-02-01T13:50:55;5.95;;;1.88;;
31872;SDS011;22407;42.820;23.374;2023-02-01T13:54:06;5.45;;;2.63;;
31872;SDS011;22407;42.820;23.374;2023-02-01T13:56:27;5.40;;;2.42;;
31872;SDS011;22407;42.820;23.374;2023-02-01T13:58:52;5.53;;;2.58;;
31872;SDS011;22407;42.820;23.374;2023-02-01T14:03:52;8.27;;;2.73;;
31872;SDS011;22407;42.820;23.374;2023-02-01T14:08:43;7.63;;;3.10;;
31872;SDS011;22407;42.820;23.374;2023-02-01T14:13:53;5.70;;;2.83;;
31872;SDS011;22407;42.820;23.374;2023-02-01T14:16:18;7.17;;;2.60;;
31872;SDS011;22407;42.820;23.374;2023-02-01T14:26:24;6.47;;;2.70;;
31872;SDS011;22407;42.820;23.374;2023-02-01T14:28:52;6.53;;;2.60;;
31872;SDS011;22407;42.820;23.374;2023-02-01T14:34:16;5.32;;;2.17;;
31872;SDS011;22407;42.820;23.374;2023-02-01T14:37:01;6.45;;;2.70;;
31872;SDS011;22407;42.820;23.374;2023-02-01T14:39:51;7.23;;;2.60;;
31872;SDS011;22407;42.820;23.374;2023-02-01T14:42:58;6.95;;;3.20;;
31872;SDS011;22407;42.820;23.374;2023-02-01T14:47:41;6.47;;;2.90;;
31872;SDS011;22407;42.820;23.374;2023-02-01T14:52:42;8.17;;;2.77;;
31872;SDS011;22407;42.820;23.374;2023-02-01T14:55:11;5.95;;;2.40;;
31872;SDS011;22407;42.820;23.374;2023-02-01T14:57:37;7.18;;;2.40;;
31872;SDS011;22407;42.820;23.374;2023-02-01T15:00:12;9.47;;;3.67;;
31872;SDS011;22407;42.820;23.374;2023-02-01T15:02:39;10.57;;;3.75;;
31872;SDS011;22407;42.820;23.374;2023-02-01T15:05:16;6.75;;;3.15;;
31872;SDS011;22407;42.820;23.374;2023-02-01T15:07:45;10.93;;;5.00;;
31872;SDS011;22407;42.820;23.374;2023-02-01T15:10:11;11.00;;;4.37;;
31872;SDS011;22407;42.820;23.374;2023-02-01T15:12:37;10.00;;;3.53;;
31872;SDS011;22407;42.820;23.374;2023-02-01T15:15:15;10.00;;;4.60;;
31872;SDS011;22407;42.820;23.374;2023-02-01T15:17:48;8.50;;;3.55;;
31872;SDS011;22407;42.820;23.374;2023-02-01T15:20:22;9.63;;;3.60;;
31872;SDS011;22407;42.820;23.374;2023-02-01T15:25:32;9.27;;;3.97;;
31872;SDS011;22407;42.820;23.374;2023-02-01T15:27:57;13.15;;;4.95;;
31872;SDS011;22407;42.820;23.374;2023-02-01T15:30:27;10.47;;;4.30;;
31872;SDS011;22407;42.820;23.374;2023-02-01T15:33:03;9.82;;;3.60;;
31872;SDS011;22407;42.820;23.374;2023-02-01T15:35:33;13.70;;;4.55;;
31872;SDS011;22407;42.820;23.374;2023-02-01T15:38:20;13.27;;;4.32;;
31872;SDS011;22407;42.820;23.374;2023-02-01T15:46:15;13.93;;;5.28;;
31872;SDS011;22407;42.820;23.374;2023-02-01T15:48:46;14.43;;;5.13;;
31872;SDS011;22407;42.820;23.374;2023-02-01T15:51:12;20.48;;;7.43;;
31872;SDS011;22407;42.820;23.374;2023-02-01T15:53:38;17.50;;;7.05;;
31872;SDS011;22407;42.820;23.374;2023-02-01T15:56:08;17.30;;;6.90;;
31872;SDS011;22407;42.820;23.374;2023-02-01T15:58:34;20.02;;;7.07;;
31872;SDS011;22407;42.820;23.374;2023-02-01T16:01:00;18.73;;;8.23;;
31872;SDS011;22407;42.820;23.374;2023-02-01T16:03:48;28.42;;;13.48;;
31872;SDS011;22407;42.820;23.374;2023-02-01T16:08:51;51.58;;;19.15;;
31872;SDS011;22407;42.820;23.374;2023-02-01T16:13:45;29.50;;;9.30;;
31872;SDS011;22407;42.820;23.374;2023-02-01T16:16:10;18.33;;;7.10;;
31872;SDS011;22407;42.820;23.374;2023-02-01T16:18:39;24.45;;;9.18;;
31872;SDS011;22407;42.820;23.374;2023-02-01T16:21:04;25.73;;;9.15;;
31872;SDS011;22407;42.820;23.374;2023-02-01T16:23:30;21.07;;;7.73;;
31872;SDS011;22407;42.820;23.374;2023-02-01T16:25:55;27.30;;;10.23;;
31872;SDS011;22407;42.820;23.374;2023-02-01T16:28:20;40.67;;;16.33;;
31872;SDS011;22407;42.820;23.374;2023-02-01T16:30:45;33.67;;;12.57;;
31872;SDS011;22407;42.820;23.374;2023-02-01T16:33:14;22.83;;;9.95;;
31872;SDS011;22407;42.820;23.374;2023-02-01T16:35:40;18.13;;;7.55;;
31872;SDS011;22407;42.820;23.374;2023-02-01T16:38:12;10.30;;;4.73;;
31872;SDS011;22407;42.820;23.374;2023-02-01T16:40:42;15.40;;;6.03;;
31872;SDS011;22407;42.820;23.374;2023-02-01T16:43:11;14.53;;;6.93;;